sensor_id;sensor_type;location;lat;lon;timestamp;P1;durP1;ratioP1;P2;durP2;ratioP2
6840;SDS011;3458;53.678;14.080;2023-04-24T00:00:33;9.20;;;6.40;;
6840;SDS011;3458;53.678;14.080;2023-04-24T00:02:58;9.00;;;7.13;;
6840;SDS011;3458;53.678;14.080;2023-04-24T00:05:24;11.80;;;8.27;;
6840;SDS011;3458;53.678;14.080;2023-04-24T00:07:50;11.57;;;8.80;;
6840;SDS011;3458;53.678;14.080;2023-04-24T00:10:19;12.27;;;7.73;;
6840;SDS011;3458;53.678;14.080;2023-04-24T00:12:44;12.70;;;7.00;;
6840;SDS011;3458;53.678;14.080;2023-04-24T00:15:10;11.53;;;7.57;;
6840;SDS011;3458;53.678;14.080;2023-04-24T00:17:36;10.50;;;7.73;;
6840;SDS011;3458;53.678;14.080;2023-04-24T00:20:01;9.53;;;7.27;;
6840;SDS011;3458;53.678;14.080;2023-04-24T00:22:29;11.23;;;6.97;;
6840;SDS011;3458;53.678;14.080;2023-04-24T00:24:56;14.00;;;7.53;;
6840;SDS011;3458;53.678;14.080;2023-04-24T00:27:21;16.00;;;7.13;;
6840;SDS011;3458;53.678;14.080;2023-04-24T00:29:47;9.53;;;7.30;;
6840;SDS011;3458;53.678;14.080;2023-04-24T00:32:13;10.97;;;7.83;;
6840;SDS011;3458;53.678;14.080;2023-04-24T00:34:39;9.50;;;6.70;;
6840;SDS011;3458;53.678;14.080;2023-04-24T00:37:05;9.50;;;7.30;;
6840;SDS011;3458;53.678;14.080;2023-04-24T00:39:31;10.43;;;7.67;;
6840;SDS011;3458;53.678;14.080;2023-04-24T00:41:57;9.47;;;7.00;;
6840;SDS011;3458;53.678;14.080;2023-04-24T00:44:22;9.80;;;7.67;;
6840;SDS011;3458;53.678;14.080;2023-04-24T00:46:48;10.23;;;6.30;;
6840;SDS011;3458;53.678;14.080;2023-04-24T00:49:19;7.77;;;6.20;;
6840;SDS011;3458;53.678;14.080;2023-04-24T00:51:46;9.20;;;7.20;;
6840;SDS011;3458;53.678;14.080;2023-04-24T00:54:15;9.23;;;6.93;;
6840;SDS011;3458;53.678;14.080;2023-04-24T00:56:41;10.43;;;7.73;;
6840;SDS011;3458;53.678;14.080;2023-04-24T00:59:07;12.20;;;7.70;;
6840;SDS011;3458;53.678;14.080;2023-04-24T01:01:33;9.33;;;6.90;;
6840;SDS011;3458;53.678;14.080;2023-04-24T01:03:58;7.53;;;6.60;;
6840;SDS011;3458;53.678;14.080;2023-04-24T01:06:27;12.00;;;7.60;;
6840;SDS011;3458;53.678;14.080;2023-04-24T01:08:53;10.10;;;7.20;;
6840;SDS011;3458;53.678;14.080;2023-04-24T01:11:20;11.27;;;7.20;;
6840;SDS011;3458;53.678;14.080;2023-04-24T01:13:47;12.57;;;7.97;;
6840;SDS011;3458;53.678;14.080;2023-04-24T01:16:13;9.87;;;7.27;;
6840;SDS011;3458;53.678;14.080;2023-04-24T01:18:40;10.83;;;6.70;;
6840;SDS011;3458;53.678;14.080;2023-04-24T01:21:06;10.30;;;7.20;;
6840;SDS011;3458;53.678;14.080;2023-04-24T01:23:34;9.60;;;6.30;;
6840;SDS011;3458;53.678;14.080;2023-04-24T01:26:00;9.93;;;7.00;;
6840;SDS011;3458;53.678;14.080;2023-04-24T01:28:26;15.40;;;8.00;;
6840;SDS011;3458;53.678;14.080;2023-04-24T01:30:51;14.77;;;8.03;;
6840;SDS011;3458;53.678;14.080;2023-04-24T01:33:18;14.47;;;8.23;;
6840;SDS011;3458;53.678;14.080;2023-04-24T01:35:45;11.40;;;7.67;;
6840;SDS011;3458;53.678;14.080;2023-04-24T01:38:11;13.83;;;8.63;;
6840;SDS011;3458;53.678;14.080;2023-04-24T01:40:36;11.83;;;7.63;;
6840;SDS011;3458;53.678;14.080;2023-04-24T01:43:02;13.50;;;7.33;;
6840;SDS011;3458;53.678;14.080;2023-04-24T01:45:27;11.20;;;7.20;;
6840;SDS011;3458;53.678;14.080;2023-04-24T01:47:53;9.23;;;6.70;;
6840;SDS011;3458;53.678;14.080;2023-04-24T01:50:19;9.40;;;6.80;;
6840;SDS011;3458;53.678;14.080;2023-04-24T01:52:44;9.10;;;6.53;;
6840;SDS011;3458;53.678;14.080;2023-04-24T01:55:10;11.10;;;7.13;;
6840;SDS011;3458;53.678;14.080;2023-04-24T01:57:36;10.27;;;7.17;;
6840;SDS011;3458;53.678;14.080;2023-04-24T02:00:02;8.53;;;6.40;;
6840;SDS011;3458;53.678;14.080;2023-04-24T02:02:29;10.90;;;7.47;;
6840;SDS011;3458;53.678;14.080;2023-04-24T02:04:56;11.53;;;7.90;;
6840;SDS011;3458;53.678;14.080;2023-04-24T02:07:22;12.30;;;8.10;;
6840;SDS011;3458;53.678;14.080;2023-04-24T02:09:47;10.70;;;7.57;;
6840;SDS011;3458;53.678;14.080;2023-04-24T02:12:13;11.10;;;6.90;;
6840;SDS011;3458;53.678;14.080;2023-04-24T02:14:39;12.43;;;7.53;;
6840;SDS011;3458;53.678;14.080;2023-04-24T02:17:05;10.13;;;6.97;;
6840;SDS011;3458;53.678;14.080;2023-04-24T02:19:31;10.27;;;6.70;;
6840;SDS011;3458;53.678;14.080;2023-04-24T02:21:57;10.03;;;6.57;;
6840;SDS011;3458;53.678;14.080;2023-04-24T02:24:22;10.27;;;6.40;;
6840;SDS011;3458;53.678;14.080;2023-04-24T02:26:48;9.37;;;6.73;;
6840;SDS011;3458;53.678;14.080;2023-04-24T02:29:13;8.80;;;6.60;;
6840;SDS011;3458;53.678;14.080;2023-04-24T02:31:39;8.27;;;6.10;;
6840;SDS011;3458;53.678;14.080;2023-04-24T02:34:04;9.87;;;6.33;;
6840;SDS011;3458;53.678;14.080;2023-04-24T02:36:30;7.80;;;5.90;;
6840;SDS011;3458;53.678;14.080;2023-04-24T02:38:56;8.67;;;6.20;;
6840;SDS011;3458;53.678;14.080;2023-04-24T02:41:21;8.90;;;6.03;;
6840;SDS011;3458;53.678;14.080;2023-04-24T02:43:47;9.77;;;7.07;;
6840;SDS011;3458;53.678;14.080;2023-04-24T02:46:13;9.00;;;5.90;;
6840;SDS011;3458;53.678;14.080;2023-04-24T02:48:38;7.90;;;6.03;;
6840;SDS011;3458;53.678;14.080;2023-04-24T02:51:04;8.13;;;5.90;;
6840;SDS011;3458;53.678;14.080;2023-04-24T02:53:29;8.13;;;5.80;;
6840;SDS011;3458;53.678;14.080;2023-04-24T02:55:55;8.20;;;5.63;;
6840;SDS011;3458;53.678;14.080;2023-04-24T02:58:21;7.80;;;5.00;;
6840;SDS011;3458;53.678;14.080;2023-04-24T03:00:47;6.83;;;5.33;;
6840;SDS011;3458;53.678;14.080;2023-04-24T03:03:13;9.20;;;5.53;;
6840;SDS011;3458;53.678;14.080;2023-04-24T03:05:38;6.47;;;4.97;;
6840;SDS011;3458;53.678;14.080;2023-04-24T03:08:04;8.80;;;5.40;;
6840;SDS011;3458;53.678;14.080;2023-04-24T03:10:31;9.50;;;5.90;;
6840;SDS011;3458;53.678;14.080;2023-04-24T03:12:57;7.17;;;5.60;;
6840;SDS011;3458;53.678;14.080;2023-04-24T03:15:22;7.00;;;5.10;;
6840;SDS011;3458;53.678;14.080;2023-04-24T03:17:48;7.93;;;4.90;;
6840;SDS011;3458;53.678;14.080;2023-04-24T03:20:13;7.00;;;5.30;;
6840;SDS011;3458;53.678;14.080;2023-04-24T03:22:39;8.47;;;5.20;;
6840;SDS011;3458;53.678;14.080;2023-04-24T03:25:05;6.97;;;5.00;;
6840;SDS011;3458;53.678;14.080;2023-04-24T03:27:31;6.80;;;4.70;;
6840;SDS011;3458;53.678;14.080;2023-04-24T03:29:56;6.03;;;5.10;;
6840;SDS011;3458;53.678;14.080;2023-04-24T03:32:22;10.03;;;7.07;;
6840;SDS011;3458;53.678;14.080;2023-04-24T03:34:48;49.87;;;29.40;;
6840;SDS011;3458;53.678;14.080;2023-04-24T03:37:14;13.30;;;8.47;;
6840;SDS011;3458;53.678;14.080;2023-04-24T03:39:40;10.63;;;5.87;;
6840;SDS011;3458;53.678;14.080;2023-04-24T03:42:06;7.90;;;5.20;;
6840;SDS011;3458;53.678;14.080;2023-04-24T03:44:33;9.63;;;6.00;;
6840;SDS011;3458;53.678;14.080;2023-04-24T03:46:59;9.87;;;7.00;;
6840;SDS011;3458;53.678;14.080;2023-04-24T03:49:25;8.10;;;5.80;;
6840;SDS011;3458;53.678;14.080;2023-04-24T03:51:50;7.77;;;5.90;;
6840;SDS011;3458;53.678;14.080;2023-04-24T03:54:17;6.63;;;5.30;;
6840;SDS011;3458;53.678;14.080;2023-04-24T03:56:43;8.30;;;5.67;;
6840;SDS011;3458;53.678;14.080;2023-04-24T03:59:08;8.03;;;5.90;;
6840;SDS011;3458;53.678;14.080;2023-04-24T04:01:34;10.80;;;6.30;;
6840;SDS011;3458;53.678;14.080;2023-04-24T04:04:02;18.50;;;10.93;;
6840;SDS011;3458;53.678;14.080;2023-04-24T04:06:28;12.70;;;8.50;;
6840;SDS011;3458;53.678;14.080;2023-04-24T04:08:53;11.20;;;6.97;;
6840;SDS011;3458;53.678;14.080;2023-04-24T04:11:19;15.43;;;7.93;;
6840;SDS011;3458;53.678;14.080;2023-04-24T04:13:44;14.30;;;6.67;;
6840;SDS011;3458;53.678;14.080;2023-04-24T04:16:12;9.53;;;7.37;;
6840;SDS011;3458;53.678;14.080;2023-04-24T04:18:38;10.73;;;6.70;;
6840;SDS011;3458;53.678;14.080;2023-04-24T04:21:04;10.50;;;6.60;;
6840;SDS011;3458;53.678;14.080;2023-04-24T04:23:29;10.80;;;7.47;;
6840;SDS011;3458;53.678;14.080;2023-04-24T04:25:55;14.03;;;6.83;;
6840;SDS011;3458;53.678;14.080;2023-04-24T04:28:20;10.27;;;6.37;;
6840;SDS011;3458;53.678;14.080;2023-04-24T04:30:46;10.83;;;7.20;;
6840;SDS011;3458;53.678;14.080;2023-04-24T04:33:12;10.37;;;6.70;;
6840;SDS011;3458;53.678;14.080;2023-04-24T04:35:38;9.83;;;6.77;;
6840;SDS011;3458;53.678;14.080;2023-04-24T04:38:03;10.30;;;6.67;;
6840;SDS011;3458;53.678;14.080;2023-04-24T04:40:29;10.90;;;8.00;;
6840;SDS011;3458;53.678;14.080;2023-04-24T04:42:55;9.67;;;7.30;;
6840;SDS011;3458;53.678;14.080;2023-04-24T04:45:20;8.57;;;5.80;;
6840;SDS011;3458;53.678;14.080;2023-04-24T04:47:46;9.33;;;7.20;;
6840;SDS011;3458;53.678;14.080;2023-04-24T04:50:12;6.93;;;5.63;;
6840;SDS011;3458;53.678;14.080;2023-04-24T04:52:38;9.70;;;6.90;;
6840;SDS011;3458;53.678;14.080;2023-04-24T04:55:04;7.90;;;6.13;;
6840;SDS011;3458;53.678;14.080;2023-04-24T04:57:30;7.90;;;5.87;;
6840;SDS011;3458;53.678;14.080;2023-04-24T04:59:56;7.80;;;6.00;;
6840;SDS011;3458;53.678;14.080;2023-04-24T05:02:21;10.17;;;6.00;;
6840;SDS011;3458;53.678;14.080;2023-04-24T05:04:47;9.40;;;6.10;;
6840;SDS011;3458;53.678;14.080;2023-04-24T05:07:12;8.13;;;5.50;;
6840;SDS011;3458;53.678;14.080;2023-04-24T05:09:38;8.63;;;6.10;;
6840;SDS011;3458;53.678;14.080;2023-04-24T05:12:03;7.07;;;6.07;;
6840;SDS011;3458;53.678;14.080;2023-04-24T05:14:29;7.27;;;6.10;;
6840;SDS011;3458;53.678;14.080;2023-04-24T05:16:54;9.80;;;6.50;;
6840;SDS011;3458;53.678;14.080;2023-04-24T05:19:20;11.13;;;6.27;;
6840;SDS011;3458;53.678;14.080;2023-04-24T05:21:45;7.87;;;6.50;;
6840;SDS011;3458;53.678;14.080;2023-04-24T05:24:11;12.57;;;6.97;;
6840;SDS011;3458;53.678;14.080;2023-04-24T05:26:36;8.63;;;6.70;;
6840;SDS011;3458;53.678;14.080;2023-04-24T05:29:02;10.10;;;7.77;;
6840;SDS011;3458;53.678;14.080;2023-04-24T05:31:28;10.50;;;8.17;;
6840;SDS011;3458;53.678;14.080;2023-04-24T05:33:54;10.33;;;7.23;;
6840;SDS011;3458;53.678;14.080;2023-04-24T05:36:19;10.33;;;8.27;;
6840;SDS011;3458;53.678;14.080;2023-04-24T05:38:45;15.60;;;9.10;;
6840;SDS011;3458;53.678;14.080;2023-04-24T05:41:10;12.57;;;8.73;;
6840;SDS011;3458;53.678;14.080;2023-04-24T05:43:36;14.20;;;9.67;;
6840;SDS011;3458;53.678;14.080;2023-04-24T05:46:01;14.30;;;10.07;;
6840;SDS011;3458;53.678;14.080;2023-04-24T05:48:27;12.77;;;9.87;;
6840;SDS011;3458;53.678;14.080;2023-04-24T05:50:52;13.70;;;9.70;;
6840;SDS011;3458;53.678;14.080;2023-04-24T05:53:18;12.70;;;9.80;;
6840;SDS011;3458;53.678;14.080;2023-04-24T05:55:44;13.20;;;9.17;;
6840;SDS011;3458;53.678;14.080;2023-04-24T05:58:10;11.87;;;9.60;;
6840;SDS011;3458;53.678;14.080;2023-04-24T06:00:36;16.97;;;10.60;;
6840;SDS011;3458;53.678;14.080;2023-04-24T06:03:04;12.97;;;10.03;;
6840;SDS011;3458;53.678;14.080;2023-04-24T06:05:30;18.13;;;9.67;;
6840;SDS011;3458;53.678;14.080;2023-04-24T06:07:56;15.03;;;10.10;;
6840;SDS011;3458;53.678;14.080;2023-04-24T06:10:21;13.63;;;10.40;;
6840;SDS011;3458;53.678;14.080;2023-04-24T06:12:47;13.90;;;9.37;;
6840;SDS011;3458;53.678;14.080;2023-04-24T06:15:12;15.33;;;9.67;;
6840;SDS011;3458;53.678;14.080;2023-04-24T06:17:38;14.90;;;9.53;;
6840;SDS011;3458;53.678;14.080;2023-04-24T06:20:04;13.90;;;10.67;;
6840;SDS011;3458;53.678;14.080;2023-04-24T06:22:30;18.63;;;11.90;;
6840;SDS011;3458;53.678;14.080;2023-04-24T06:24:56;12.23;;;9.60;;
6840;SDS011;3458;53.678;14.080;2023-04-24T06:27:21;11.17;;;8.23;;
6840;SDS011;3458;53.678;14.080;2023-04-24T06:29:47;14.90;;;10.80;;
6840;SDS011;3458;53.678;14.080;2023-04-24T06:32:19;17.00;;;9.90;;
6840;SDS011;3458;53.678;14.080;2023-04-24T06:34:45;11.93;;;8.77;;
6840;SDS011;3458;53.678;14.080;2023-04-24T06:37:11;15.70;;;9.30;;
6840;SDS011;3458;53.678;14.080;2023-04-24T06:39:36;13.70;;;10.57;;
6840;SDS011;3458;53.678;14.080;2023-04-24T06:42:02;14.00;;;10.33;;
6840;SDS011;3458;53.678;14.080;2023-04-24T06:44:27;16.27;;;10.60;;
6840;SDS011;3458;53.678;14.080;2023-04-24T06:46:53;13.03;;;10.57;;
6840;SDS011;3458;53.678;14.080;2023-04-24T06:49:18;15.00;;;10.47;;
6840;SDS011;3458;53.678;14.080;2023-04-24T06:51:45;13.53;;;10.37;;
6840;SDS011;3458;53.678;14.080;2023-04-24T06:54:10;18.97;;;11.83;;
6840;SDS011;3458;53.678;14.080;2023-04-24T06:56:36;20.67;;;11.70;;
6840;SDS011;3458;53.678;14.080;2023-04-24T06:59:01;15.60;;;11.50;;
6840;SDS011;3458;53.678;14.080;2023-04-24T07:01:27;17.10;;;11.87;;
6840;SDS011;3458;53.678;14.080;2023-04-24T07:03:52;16.00;;;11.50;;
6840;SDS011;3458;53.678;14.080;2023-04-24T07:06:18;16.77;;;11.97;;
6840;SDS011;3458;53.678;14.080;2023-04-24T07:08:46;15.60;;;11.80;;
6840;SDS011;3458;53.678;14.080;2023-04-24T07:11:12;20.97;;;12.50;;
6840;SDS011;3458;53.678;14.080;2023-04-24T07:13:37;16.87;;;11.50;;
6840;SDS011;3458;53.678;14.080;2023-04-24T07:16:06;15.97;;;11.37;;
6840;SDS011;3458;53.678;14.080;2023-04-24T07:18:33;16.80;;;12.70;;
6840;SDS011;3458;53.678;14.080;2023-04-24T07:20:58;16.53;;;12.50;;
6840;SDS011;3458;53.678;14.080;2023-04-24T07:23:24;18.50;;;12.67;;
6840;SDS011;3458;53.678;14.080;2023-04-24T07:25:49;16.17;;;12.27;;
6840;SDS011;3458;53.678;14.080;2023-04-24T07:28:15;18.60;;;13.13;;
6840;SDS011;3458;53.678;14.080;2023-04-24T07:30:42;15.87;;;11.57;;
6840;SDS011;3458;53.678;14.080;2023-04-24T07:33:08;17.47;;;12.07;;
6840;SDS011;3458;53.678;14.080;2023-04-24T07:35:36;16.50;;;11.90;;
6840;SDS011;3458;53.678;14.080;2023-04-24T07:38:01;15.90;;;11.83;;
6840;SDS011;3458;53.678;14.080;2023-04-24T07:40:27;15.33;;;11.90;;
6840;SDS011;3458;53.678;14.080;2023-04-24T07:42:52;16.57;;;10.90;;
6840;SDS011;3458;53.678;14.080;2023-04-24T07:45:18;19.03;;;12.10;;
6840;SDS011;3458;53.678;14.080;2023-04-24T07:47:43;14.37;;;10.70;;
6840;SDS011;3458;53.678;14.080;2023-04-24T07:50:10;17.83;;;11.37;;
6840;SDS011;3458;53.678;14.080;2023-04-24T07:52:37;15.20;;;10.53;;
6840;SDS011;3458;53.678;14.080;2023-04-24T07:55:03;12.03;;;9.97;;
6840;SDS011;3458;53.678;14.080;2023-04-24T07:57:29;16.07;;;12.03;;
6840;SDS011;3458;53.678;14.080;2023-04-24T07:59:55;17.87;;;11.10;;
6840;SDS011;3458;53.678;14.080;2023-04-24T08:02:20;18.03;;;11.20;;
6840;SDS011;3458;53.678;14.080;2023-04-24T08:04:51;15.83;;;11.00;;
6840;SDS011;3458;53.678;14.080;2023-04-24T08:07:17;14.33;;;9.90;;
6840;SDS011;3458;53.678;14.080;2023-04-24T08:09:43;13.00;;;10.07;;
6840;SDS011;3458;53.678;14.080;2023-04-24T08:12:09;13.43;;;9.63;;
6840;SDS011;3458;53.678;14.080;2023-04-24T08:14:34;13.43;;;9.87;;
6840;SDS011;3458;53.678;14.080;2023-04-24T08:17:00;12.83;;;9.77;;
6840;SDS011;3458;53.678;14.080;2023-04-24T08:19:26;13.33;;;9.50;;
6840;SDS011;3458;53.678;14.080;2023-04-24T08:21:51;10.97;;;8.53;;
6840;SDS011;3458;53.678;14.080;2023-04-24T08:24:17;11.90;;;8.83;;
6840;SDS011;3458;53.678;14.080;2023-04-24T08:26:42;10.57;;;8.60;;
6840;SDS011;3458;53.678;14.080;2023-04-24T08:29:08;10.53;;;7.97;;
6840;SDS011;3458;53.678;14.080;2023-04-24T08:31:34;9.27;;;7.30;;
6840;SDS011;3458;53.678;14.080;2023-04-24T08:34:00;10.80;;;7.40;;
6840;SDS011;3458;53.678;14.080;2023-04-24T08:36:25;10.30;;;6.80;;
6840;SDS011;3458;53.678;14.080;2023-04-24T08:38:51;21.80;;;8.87;;
6840;SDS011;3458;53.678;14.080;2023-04-24T08:41:17;9.00;;;6.70;;
6840;SDS011;3458;53.678;14.080;2023-04-24T08:43:45;8.53;;;6.93;;
6840;SDS011;3458;53.678;14.080;2023-04-24T08:46:11;9.23;;;6.00;;
6840;SDS011;3458;53.678;14.080;2023-04-24T08:48:38;7.20;;;6.50;;
6840;SDS011;3458;53.678;14.080;2023-04-24T08:51:04;7.43;;;6.63;;
6840;SDS011;3458;53.678;14.080;2023-04-24T08:53:32;11.10;;;6.50;;
6840;SDS011;3458;53.678;14.080;2023-04-24T08:55:59;9.23;;;5.80;;
6840;SDS011;3458;53.678;14.080;2023-04-24T08:58:26;5.43;;;4.40;;
6840;SDS011;3458;53.678;14.080;2023-04-24T09:00:56;3.30;;;2.93;;
6840;SDS011;3458;53.678;14.080;2023-04-24T09:03:22;4.13;;;3.10;;
6840;SDS011;3458;53.678;14.080;2023-04-24T09:05:48;3.23;;;2.90;;
6840;SDS011;3458;53.678;14.080;2023-04-24T09:08:16;5.73;;;2.40;;
6840;SDS011;3458;53.678;14.080;2023-04-24T09:10:43;4.00;;;2.83;;
6840;SDS011;3458;53.678;14.080;2023-04-24T09:13:09;5.97;;;2.73;;
6840;SDS011;3458;53.678;14.080;2023-04-24T09:15:36;2.80;;;2.60;;
6840;SDS011;3458;53.678;14.080;2023-04-24T09:18:02;5.43;;;2.40;;
6840;SDS011;3458;53.678;14.080;2023-04-24T09:20:27;2.97;;;2.67;;
6840;SDS011;3458;53.678;14.080;2023-04-24T09:22:54;3.57;;;2.67;;
6840;SDS011;3458;53.678;14.080;2023-04-24T09:25:21;3.00;;;2.60;;
6840;SDS011;3458;53.678;14.080;2023-04-24T09:27:46;3.00;;;2.20;;
6840;SDS011;3458;53.678;14.080;2023-04-24T09:30:12;2.50;;;2.30;;
6840;SDS011;3458;53.678;14.080;2023-04-24T09:32:39;2.30;;;2.13;;
6840;SDS011;3458;53.678;14.080;2023-04-24T09:35:05;2.00;;;1.90;;
6840;SDS011;3458;53.678;14.080;2023-04-24T09:37:35;2.63;;;2.43;;
6840;SDS011;3458;53.678;14.080;2023-04-24T09:40:15;2.40;;;2.20;;
6840;SDS011;3458;53.678;14.080;2023-04-24T09:42:59;5.10;;;2.70;;
6840;SDS011;3458;53.678;14.080;2023-04-24T09:45:27;2.73;;;2.53;;
6840;SDS011;3458;53.678;14.080;2023-04-24T09:47:59;4.00;;;2.27;;
6840;SDS011;3458;53.678;14.080;2023-04-24T09:50:25;2.67;;;2.47;;
6840;SDS011;3458;53.678;14.080;2023-04-24T09:52:57;2.37;;;2.17;;
6840;SDS011;3458;53.678;14.080;2023-04-24T09:55:24;2.33;;;2.00;;
6840;SDS011;3458;53.678;14.080;2023-04-24T09:57:57;2.33;;;2.13;;
6840;SDS011;3458;53.678;14.080;2023-04-24T10:00:25;1.80;;;1.70;;
6840;SDS011;3458;53.678;14.080;2023-04-24T10:03:01;1.73;;;1.63;;
6840;SDS011;3458;53.678;14.080;2023-04-24T10:05:29;2.20;;;2.00;;
6840;SDS011;3458;53.678;14.080;2023-04-24T10:08:06;2.40;;;1.83;;
6840;SDS011;3458;53.678;14.080;2023-04-24T10:10:43;1.80;;;1.70;;
6840;SDS011;3458;53.678;14.080;2023-04-24T10:13:10;5.13;;;1.97;;
6840;SDS011;3458;53.678;14.080;2023-04-24T10:15:37;1.47;;;1.37;;
6840;SDS011;3458;53.678;14.080;2023-04-24T10:18:07;2.20;;;1.23;;
6840;SDS011;3458;53.678;14.080;2023-04-24T10:20:34;2.10;;;1.53;;
6840;SDS011;3458;53.678;14.080;2023-04-24T10:23:01;2.40;;;1.63;;
6840;SDS011;3458;53.678;14.080;2023-04-24T10:25:28;1.43;;;1.33;;
6840;SDS011;3458;53.678;14.080;2023-04-24T10:27:55;1.93;;;1.63;;
6840;SDS011;3458;53.678;14.080;2023-04-24T10:30:25;1.20;;;1.10;;
6840;SDS011;3458;53.678;14.080;2023-04-24T10:32:52;2.73;;;2.30;;
6840;SDS011;3458;53.678;14.080;2023-04-24T10:35:18;2.50;;;1.60;;
6840;SDS011;3458;53.678;14.080;2023-04-24T10:38:09;1.40;;;1.30;;
6840;SDS011;3458;53.678;14.080;2023-04-24T10:40:34;7.70;;;1.40;;
6840;SDS011;3458;53.678;14.080;2023-04-24T10:43:07;2.93;;;1.30;;
6840;SDS011;3458;53.678;14.080;2023-04-24T10:45:35;1.43;;;1.33;;
6840;SDS011;3458;53.678;14.080;2023-04-24T10:48:03;1.30;;;1.20;;
6840;SDS011;3458;53.678;14.080;2023-04-24T10:50:44;4.40;;;1.30;;
6840;SDS011;3458;53.678;14.080;2023-04-24T10:53:15;1.40;;;1.30;;
6840;SDS011;3458;53.678;14.080;2023-04-24T10:55:46;2.60;;;1.47;;
6840;SDS011;3458;53.678;14.080;2023-04-24T10:58:16;18.83;;;3.30;;
6840;SDS011;3458;53.678;14.080;2023-04-24T11:00:55;2.17;;;1.90;;
6840;SDS011;3458;53.678;14.080;2023-04-24T11:03:23;4.40;;;1.80;;
6840;SDS011;3458;53.678;14.080;2023-04-24T11:05:55;1.53;;;1.43;;
6840;SDS011;3458;53.678;14.080;2023-04-24T11:08:23;5.53;;;1.80;;
6840;SDS011;3458;53.678;14.080;2023-04-24T11:16:26;1.60;;;1.50;;
6840;SDS011;3458;53.678;14.080;2023-04-24T11:19:01;7.60;;;1.77;;
6840;SDS011;3458;53.678;14.080;2023-04-24T11:21:39;1.90;;;1.70;;
6840;SDS011;3458;53.678;14.080;2023-04-24T11:29:42;3.00;;;1.60;;
6840;SDS011;3458;53.678;14.080;2023-04-24T11:32:16;1.50;;;1.40;;
6840;SDS011;3458;53.678;14.080;2023-04-24T11:35:07;2.03;;;1.03;;
6840;SDS011;3458;53.678;14.080;2023-04-24T11:37:41;4.30;;;1.30;;
6840;SDS011;3458;53.678;14.080;2023-04-24T11:40:11;2.93;;;1.03;;
6840;SDS011;3458;53.678;14.080;2023-04-24T11:42:42;1.37;;;1.23;;
6840;SDS011;3458;53.678;14.080;2023-04-24T11:45:10;1.40;;;1.30;;
6840;SDS011;3458;53.678;14.080;2023-04-24T11:47:38;2.40;;;1.13;;
6840;SDS011;3458;53.678;14.080;2023-04-24T11:50:05;1.33;;;1.20;;
6840;SDS011;3458;53.678;14.080;2023-04-24T11:52:33;1.40;;;1.10;;
6840;SDS011;3458;53.678;14.080;2023-04-24T11:55:02;1.23;;;1.00;;
6840;SDS011;3458;53.678;14.080;2023-04-24T11:57:28;2.40;;;1.20;;
6840;SDS011;3458;53.678;14.080;2023-04-24T11:59:58;2.83;;;1.37;;
6840;SDS011;3458;53.678;14.080;2023-04-24T12:02:25;1.30;;;1.17;;
6840;SDS011;3458;53.678;14.080;2023-04-24T12:04:54;2.17;;;1.10;;
6840;SDS011;3458;53.678;14.080;2023-04-24T12:07:20;1.50;;;1.40;;
6840;SDS011;3458;53.678;14.080;2023-04-24T12:09:49;4.10;;;2.30;;
6840;SDS011;3458;53.678;14.080;2023-04-24T12:12:22;2.00;;;1.40;;
6840;SDS011;3458;53.678;14.080;2023-04-24T12:17:29;2.27;;;1.40;;
6840;SDS011;3458;53.678;14.080;2023-04-24T12:19:57;3.00;;;1.33;;
6840;SDS011;3458;53.678;14.080;2023-04-24T12:22:43;1.40;;;1.30;;
6840;SDS011;3458;53.678;14.080;2023-04-24T12:25:13;1.80;;;1.50;;
6840;SDS011;3458;53.678;14.080;2023-04-24T12:27:43;2.87;;;1.40;;
6840;SDS011;3458;53.678;14.080;2023-04-24T12:30:16;1.43;;;1.30;;
6840;SDS011;3458;53.678;14.080;2023-04-24T12:32:46;2.00;;;1.80;;
6840;SDS011;3458;53.678;14.080;2023-04-24T12:35:13;4.70;;;3.27;;
6840;SDS011;3458;53.678;14.080;2023-04-24T12:37:46;2.47;;;1.60;;
6840;SDS011;3458;53.678;14.080;2023-04-24T12:40:12;3.40;;;3.10;;
6840;SDS011;3458;53.678;14.080;2023-04-24T12:42:42;2.00;;;1.80;;
6840;SDS011;3458;53.678;14.080;2023-04-24T12:45:09;1.43;;;1.17;;
6840;SDS011;3458;53.678;14.080;2023-04-24T12:47:36;1.43;;;1.07;;
6840;SDS011;3458;53.678;14.080;2023-04-24T12:50:02;4.97;;;1.30;;
6840;SDS011;3458;53.678;14.080;2023-04-24T12:52:29;1.10;;;0.90;;
6840;SDS011;3458;53.678;14.080;2023-04-24T12:54:55;2.83;;;1.23;;
6840;SDS011;3458;53.678;14.080;2023-04-24T12:57:23;1.10;;;1.10;;
6840;SDS011;3458;53.678;14.080;2023-04-24T12:59:49;1.37;;;0.90;;
6840;SDS011;3458;53.678;14.080;2023-04-24T13:02:15;1.20;;;1.10;;
6840;SDS011;3458;53.678;14.080;2023-04-24T13:04:44;1.00;;;0.90;;
6840;SDS011;3458;53.678;14.080;2023-04-24T13:07:11;0.80;;;0.80;;
6840;SDS011;3458;53.678;14.080;2023-04-24T13:09:37;1.23;;;0.87;;
6840;SDS011;3458;53.678;14.080;2023-04-24T13:12:03;0.70;;;0.70;;
6840;SDS011;3458;53.678;14.080;2023-04-24T13:14:30;1.20;;;0.70;;
6840;SDS011;3458;53.678;14.080;2023-04-24T13:16:56;2.50;;;0.70;;
6840;SDS011;3458;53.678;14.080;2023-04-24T13:19:23;3.43;;;1.20;;
6840;SDS011;3458;53.678;14.080;2023-04-24T13:21:50;0.80;;;0.80;;
6840;SDS011;3458;53.678;14.080;2023-04-24T13:24:16;1.10;;;1.00;;
6840;SDS011;3458;53.678;14.080;2023-04-24T13:26:42;0.90;;;0.87;;
6840;SDS011;3458;53.678;14.080;2023-04-24T13:29:08;1.27;;;0.90;;
6840;SDS011;3458;53.678;14.080;2023-04-24T13:31:34;0.90;;;0.90;;
6840;SDS011;3458;53.678;14.080;2023-04-24T13:34:01;1.10;;;1.00;;
6840;SDS011;3458;53.678;14.080;2023-04-24T13:36:27;1.77;;;1.10;;
6840;SDS011;3458;53.678;14.080;2023-04-24T13:38:53;1.20;;;1.10;;
6840;SDS011;3458;53.678;14.080;2023-04-24T13:41:19;0.97;;;0.80;;
6840;SDS011;3458;53.678;14.080;2023-04-24T13:43:45;1.10;;;1.00;;
6840;SDS011;3458;53.678;14.080;2023-04-24T13:46:11;1.10;;;1.00;;
6840;SDS011;3458;53.678;14.080;2023-04-24T13:48:37;1.10;;;0.90;;
6840;SDS011;3458;53.678;14.080;2023-04-24T13:51:03;0.90;;;0.90;;
6840;SDS011;3458;53.678;14.080;2023-04-24T13:53:29;1.63;;;1.00;;
6840;SDS011;3458;53.678;14.080;2023-04-24T13:55:55;1.23;;;1.00;;
6840;SDS011;3458;53.678;14.080;2023-04-24T13:58:21;1.10;;;1.00;;
6840;SDS011;3458;53.678;14.080;2023-04-24T14:00:46;2.10;;;1.00;;
6840;SDS011;3458;53.678;14.080;2023-04-24T14:03:12;1.20;;;1.03;;
6840;SDS011;3458;53.678;14.080;2023-04-24T14:05:38;1.40;;;1.30;;
6840;SDS011;3458;53.678;14.080;2023-04-24T14:08:04;2.00;;;1.10;;
6840;SDS011;3458;53.678;14.080;2023-04-24T14:10:31;1.30;;;1.20;;
6840;SDS011;3458;53.678;14.080;2023-04-24T14:12:57;2.20;;;0.90;;
6840;SDS011;3458;53.678;14.080;2023-04-24T14:15:23;4.97;;;2.10;;
6840;SDS011;3458;53.678;14.080;2023-04-24T14:17:49;0.80;;;0.80;;
6840;SDS011;3458;53.678;14.080;2023-04-24T14:20:15;2.40;;;0.90;;
6840;SDS011;3458;53.678;14.080;2023-04-24T14:22:41;2.13;;;0.90;;
6840;SDS011;3458;53.678;14.080;2023-04-24T14:25:07;3.30;;;1.80;;
6840;SDS011;3458;53.678;14.080;2023-04-24T14:27:33;1.10;;;0.90;;
6840;SDS011;3458;53.678;14.080;2023-04-24T14:29:59;1.37;;;0.83;;
6840;SDS011;3458;53.678;14.080;2023-04-24T14:32:25;1.33;;;1.23;;
6840;SDS011;3458;53.678;14.080;2023-04-24T14:34:51;1.83;;;0.70;;
6840;SDS011;3458;53.678;14.080;2023-04-24T14:37:17;0.80;;;0.80;;
6840;SDS011;3458;53.678;14.080;2023-04-24T14:39:43;0.77;;;0.77;;
6840;SDS011;3458;53.678;14.080;2023-04-24T14:42:09;1.40;;;1.07;;
6840;SDS011;3458;53.678;14.080;2023-04-24T14:44:35;0.80;;;0.80;;
6840;SDS011;3458;53.678;14.080;2023-04-24T14:47:01;1.23;;;1.13;;
6840;SDS011;3458;53.678;14.080;2023-04-24T14:49:27;0.80;;;0.80;;
6840;SDS011;3458;53.678;14.080;2023-04-24T14:51:53;0.80;;;0.80;;
6840;SDS011;3458;53.678;14.080;2023-04-24T14:54:18;2.40;;;0.90;;
6840;SDS011;3458;53.678;14.080;2023-04-24T14:56:47;1.20;;;1.10;;
6840;SDS011;3458;53.678;14.080;2023-04-24T14:59:14;2.53;;;1.00;;
6840;SDS011;3458;53.678;14.080;2023-04-24T15:01:40;1.43;;;0.80;;
6840;SDS011;3458;53.678;14.080;2023-04-24T15:04:06;1.33;;;0.90;;
6840;SDS011;3458;53.678;14.080;2023-04-24T15:06:31;1.00;;;1.00;;